DLH29P EDDF-ENGM
Flight info
| Callsign | DLH29P |
|---|---|
| Flight time | 1h 35m |
| Altitude | 37000 |
| Route | MARUN6E/07C MARUN Y150 TOLGI DCT ALASA DCT INVOL DCT SABAK/N0456F380 L997 LUNIP |
| Aircraft | A320/M-SDE3FGHIRWY/LB1 |
Departure
| Time | 2026-05-08 07:36 |
|---|---|
| Airport | Frankfurt Main Airport (EDDF) |
Arrival
| Time | 2026-05-08 09:11 |
|---|---|
| Airport | Oslo-Gardermoen International Airport (ENGM) |
| Time | Latitude | Longitude | Altitude | Speed | Heading |
|---|---|---|---|---|---|
| 2026-05-08 07:02 | 50.04653 | 8.57059 | 365 ft | 0 kts | 91° |
| 2026-05-08 07:25 | 50.04653 | 8.56998 | 356 ft | 2 kts | 91° |
| 2026-05-08 07:26 | 50.04657 | 8.56963 | 360 ft | 4 kts | 133° |
| 2026-05-08 07:26 | 50.04676 | 8.56951 | 359 ft | 4 kts | 200° |
| 2026-05-08 07:26 | 50.04673 | 8.56948 | 360 ft | 4 kts | 204° |
| 2026-05-08 07:26 | 50.04649 | 8.56931 | 359 ft | 3 kts | 204° |
| 2026-05-08 07:27 | 50.04647 | 8.56929 | 358 ft | 0 kts | 204° |
| 2026-05-08 07:29 | 50.04645 | 8.56928 | 358 ft | 2 kts | 204° |
| 2026-05-08 07:29 | 50.04622 | 8.56916 | 356 ft | 4 kts | 196° |
| 2026-05-08 07:29 | 50.04577 | 8.56900 | 357 ft | 5 kts | 192° |
| 2026-05-08 07:30 | 50.04541 | 8.56888 | 359 ft | 13 kts | 193° |
| 2026-05-08 07:30 | 50.04453 | 8.56857 | 361 ft | 12 kts | 191° |
| 2026-05-08 07:30 | 50.04376 | 8.56837 | 360 ft | 11 kts | 190° |
| 2026-05-08 07:30 | 50.04281 | 8.56806 | 359 ft | 14 kts | 196° |
| 2026-05-08 07:31 | 50.04227 | 8.56700 | 359 ft | 13 kts | 250° |
| 2026-05-08 07:31 | 50.04182 | 8.56511 | 363 ft | 23 kts | 250° |
| 2026-05-08 07:31 | 50.04130 | 8.56291 | 356 ft | 21 kts | 249° |
| 2026-05-08 07:31 | 50.04078 | 8.56081 | 356 ft | 20 kts | 249° |
| 2026-05-08 07:32 | 50.04030 | 8.55875 | 353 ft | 20 kts | 250° |
| 2026-05-08 07:32 | 50.03983 | 8.55676 | 350 ft | 19 kts | 249° |
| 2026-05-08 07:32 | 50.03939 | 8.55494 | 351 ft | 17 kts | 250° |
| 2026-05-08 07:32 | 50.03900 | 8.55329 | 353 ft | 16 kts | 250° |
| 2026-05-08 07:33 | 50.03862 | 8.55169 | 353 ft | 16 kts | 250° |
| 2026-05-08 07:33 | 50.03817 | 8.54982 | 353 ft | 19 kts | 249° |
| 2026-05-08 07:33 | 50.03772 | 8.54795 | 351 ft | 18 kts | 250° |
| 2026-05-08 07:33 | 50.03729 | 8.54616 | 352 ft | 17 kts | 249° |
| 2026-05-08 07:34 | 50.03677 | 8.54392 | 351 ft | 20 kts | 249° |
| 2026-05-08 07:34 | 50.03611 | 8.54314 | 341 ft | 12 kts | 175° |
| 2026-05-08 07:34 | 50.03524 | 8.54365 | 349 ft | 12 kts | 146° |
| 2026-05-08 07:34 | 50.03507 | 8.54483 | 353 ft | 11 kts | 72° |
| 2026-05-08 07:35 | 50.03535 | 8.54607 | 352 ft | 14 kts | 70° |
| 2026-05-08 07:35 | 50.03620 | 8.54959 | 344 ft | 69 kts | 69° |
| 2026-05-08 07:35 | 50.03864 | 8.55975 | 353 ft | 128 kts | 69° |
| 2026-05-08 07:35 | 50.04229 | 8.57504 | 427 ft | 168 kts | 70° |
| 2026-05-08 07:36 | 50.04626 | 8.59230 | 1141 ft | 169 kts | 70° |
| 2026-05-08 07:36 | 50.05035 | 8.60970 | 1810 ft | 179 kts | 70° |
| 2026-05-08 07:36 | 50.05661 | 8.62762 | 2158 ft | 201 kts | 43° |
| 2026-05-08 07:36 | 50.06963 | 8.63639 | 2677 ft | 214 kts | 3° |
| 2026-05-08 07:37 | 50.08473 | 8.63453 | 3487 ft | 216 kts | 356° |
| 2026-05-08 07:37 | 50.09988 | 8.63354 | 4364 ft | 219 kts | 360° |
| 2026-05-08 07:37 | 50.11568 | 8.63341 | 4910 ft | 240 kts | 359° |
| 2026-05-08 07:37 | 50.13312 | 8.63265 | 5404 ft | 261 kts | 357° |
| 2026-05-08 07:38 | 50.15164 | 8.63114 | 6219 ft | 269 kts | 355° |
| 2026-05-08 07:38 | 50.17044 | 8.62943 | 7119 ft | 272 kts | 355° |
| 2026-05-08 07:38 | 50.18954 | 8.62780 | 7974 ft | 278 kts | 356° |
| 2026-05-08 07:38 | 50.20905 | 8.62646 | 8834 ft | 283 kts | 356° |
| 2026-05-08 07:39 | 50.22884 | 8.62524 | 9693 ft | 288 kts | 356° |
| 2026-05-08 07:39 | 50.24911 | 8.62397 | 10418 ft | 298 kts | 356° |
| 2026-05-08 07:39 | 50.27064 | 8.62251 | 10714 ft | 322 kts | 356° |
| 2026-05-08 07:39 | 50.29385 | 8.62090 | 10961 ft | 345 kts | 356° |
| 2026-05-08 07:40 | 50.31864 | 8.61923 | 11131 ft | 369 kts | 356° |
| 2026-05-08 07:40 | 50.34497 | 8.61787 | 11413 ft | 386 kts | 358° |
| 2026-05-08 07:40 | 50.37205 | 8.61751 | 12039 ft | 392 kts | 359° |
| 2026-05-08 07:40 | 50.39946 | 8.61773 | 12729 ft | 396 kts | 359° |
| 2026-05-08 07:41 | 50.42681 | 8.61816 | 13400 ft | 399 kts | 359° |
| 2026-05-08 07:41 | 50.45467 | 8.61989 | 14024 ft | 403 kts | 5° |
| 2026-05-08 07:41 | 50.48275 | 8.62424 | 14598 ft | 407 kts | 4° |
| 2026-05-08 07:41 | 50.51101 | 8.62838 | 15179 ft | 410 kts | 4° |
| 2026-05-08 07:42 | 50.53950 | 8.63240 | 15753 ft | 413 kts | 4° |
| 2026-05-08 07:42 | 50.56823 | 8.63636 | 16317 ft | 416 kts | 4° |
| 2026-05-08 07:42 | 50.59722 | 8.64033 | 16868 ft | 419 kts | 3° |
| 2026-05-08 07:42 | 50.62635 | 8.64434 | 17410 ft | 422 kts | 3° |
| 2026-05-08 07:43 | 50.65571 | 8.64841 | 17943 ft | 425 kts | 3° |
| 2026-05-08 07:43 | 50.68528 | 8.65254 | 18466 ft | 428 kts | 3° |
| 2026-05-08 07:43 | 50.71506 | 8.65676 | 18917 ft | 431 kts | 3° |
| 2026-05-08 07:43 | 50.74504 | 8.66105 | 19374 ft | 434 kts | 4° |
| 2026-05-08 07:44 | 50.77493 | 8.66946 | 19799 ft | 439 kts | 14° |
| 2026-05-08 07:44 | 50.80367 | 8.68633 | 20225 ft | 444 kts | 24° |
| 2026-05-08 07:44 | 50.83038 | 8.71123 | 20645 ft | 449 kts | 34° |
| 2026-05-08 07:44 | 50.85413 | 8.74357 | 21059 ft | 453 kts | 45° |
| 2026-05-08 07:45 | 50.87424 | 8.78211 | 21450 ft | 456 kts | 52° |
| 2026-05-08 07:45 | 50.88696 | 8.80867 | 21719 ft | 458 kts | 52° |
| 2026-05-08 07:45 | 50.90624 | 8.84899 | 22113 ft | 460 kts | 52° |
| 2026-05-08 07:45 | 50.92561 | 8.88953 | 22514 ft | 463 kts | 52° |
| 2026-05-08 07:46 | 50.94511 | 8.93039 | 22903 ft | 466 kts | 52° |
| 2026-05-08 07:46 | 50.97108 | 8.98488 | 23393 ft | 469 kts | 52° |
| 2026-05-08 07:46 | 50.98438 | 9.01282 | 23646 ft | 471 kts | 52° |
| 2026-05-08 07:46 | 51.00417 | 9.05441 | 23970 ft | 473 kts | 52° |
| 2026-05-08 07:47 | 51.02401 | 9.09614 | 24283 ft | 475 kts | 52° |
| 2026-05-08 07:47 | 51.04390 | 9.13819 | 24576 ft | 477 kts | 52° |
| 2026-05-08 07:47 | 51.06383 | 9.18040 | 24866 ft | 479 kts | 51° |
| 2026-05-08 07:47 | 51.08586 | 9.22009 | 25146 ft | 479 kts | 43° |
| 2026-05-08 07:48 | 51.11145 | 9.25396 | 25420 ft | 479 kts | 33° |
| 2026-05-08 07:48 | 51.14007 | 9.28118 | 25700 ft | 479 kts | 24° |
| 2026-05-08 07:48 | 51.17085 | 9.30080 | 26087 ft | 476 kts | 15° |
| 2026-05-08 07:48 | 51.20292 | 9.31326 | 26482 ft | 473 kts | 10° |
| 2026-05-08 07:49 | 51.23462 | 9.32405 | 26905 ft | 472 kts | 10° |
| 2026-05-08 07:49 | 51.26665 | 9.33507 | 27328 ft | 471 kts | 10° |
| 2026-05-08 07:49 | 51.29864 | 9.34620 | 27739 ft | 470 kts | 10° |
| 2026-05-08 07:49 | 51.33056 | 9.35738 | 28145 ft | 469 kts | 10° |
| 2026-05-08 07:50 | 51.36239 | 9.36855 | 28569 ft | 468 kts | 10° |
| 2026-05-08 07:50 | 51.39418 | 9.37972 | 29020 ft | 467 kts | 10° |
| 2026-05-08 07:50 | 51.42590 | 9.39089 | 29444 ft | 466 kts | 10° |
| 2026-05-08 07:50 | 51.45760 | 9.40203 | 29888 ft | 465 kts | 10° |
| 2026-05-08 07:51 | 51.48914 | 9.41312 | 30312 ft | 464 kts | 10° |
| 2026-05-08 07:51 | 51.52070 | 9.42418 | 30676 ft | 464 kts | 10° |
| 2026-05-08 07:51 | 51.55219 | 9.43518 | 31040 ft | 463 kts | 9° |
| 2026-05-08 07:51 | 51.58361 | 9.44614 | 31401 ft | 462 kts | 9° |
| 2026-05-08 07:52 | 51.61501 | 9.45707 | 31772 ft | 461 kts | 9° |
| 2026-05-08 07:52 | 51.64635 | 9.46803 | 32149 ft | 460 kts | 9° |
| 2026-05-08 07:52 | 51.67762 | 9.47907 | 32537 ft | 459 kts | 9° |
| 2026-05-08 07:52 | 51.70879 | 9.49016 | 32912 ft | 458 kts | 10° |
| 2026-05-08 07:53 | 51.73990 | 9.50126 | 33282 ft | 457 kts | 9° |
| 2026-05-08 07:53 | 51.77091 | 9.51232 | 33635 ft | 456 kts | 9° |
| 2026-05-08 07:53 | 51.80187 | 9.52339 | 33991 ft | 456 kts | 9° |
| 2026-05-08 07:53 | 51.83297 | 9.53328 | 34316 ft | 453 kts | 5° |
| 2026-05-08 07:54 | 51.86432 | 9.53796 | 34595 ft | 453 kts | 2° |
| 2026-05-08 07:54 | 51.89572 | 9.54209 | 34879 ft | 453 kts | 2° |
| 2026-05-08 07:54 | 51.92675 | 9.54621 | 35137 ft | 454 kts | 2° |
| 2026-05-08 07:54 | 51.95826 | 9.55042 | 35385 ft | 454 kts | 2° |
| 2026-05-08 07:55 | 51.98979 | 9.55466 | 35613 ft | 455 kts | 2° |
| 2026-05-08 07:55 | 52.02134 | 9.55894 | 35846 ft | 456 kts | 2° |
| 2026-05-08 07:55 | 52.05296 | 9.56323 | 36072 ft | 456 kts | 2° |
| 2026-05-08 07:55 | 52.08465 | 9.56753 | 36291 ft | 457 kts | 2° |
| 2026-05-08 07:56 | 52.11635 | 9.57182 | 36491 ft | 458 kts | 2° |
| 2026-05-08 07:56 | 52.14808 | 9.57612 | 36727 ft | 458 kts | 2° |
| 2026-05-08 07:56 | 52.17984 | 9.58040 | 36944 ft | 459 kts | 2° |
| 2026-05-08 07:56 | 52.21177 | 9.58472 | 37128 ft | 460 kts | 2° |
| 2026-05-08 07:57 | 52.24381 | 9.58912 | 37175 ft | 464 kts | 2° |
| 2026-05-08 07:57 | 52.30835 | 9.59808 | 37184 ft | 466 kts | 2° |
| 2026-05-08 07:58 | 52.37296 | 9.60704 | 37186 ft | 466 kts | 2° |
| 2026-05-08 07:58 | 52.43763 | 9.61586 | 37195 ft | 466 kts | 2° |
| 2026-05-08 07:59 | 52.50224 | 9.62471 | 37193 ft | 466 kts | 2° |
| 2026-05-08 07:59 | 52.56692 | 9.63366 | 37196 ft | 467 kts | 2° |
| 2026-05-08 08:00 | 52.63125 | 9.64263 | 37200 ft | 467 kts | 2° |
| 2026-05-08 08:00 | 52.69598 | 9.65160 | 37194 ft | 467 kts | 2° |
| 2026-05-08 08:01 | 52.76075 | 9.66067 | 37189 ft | 467 kts | 2° |
| 2026-05-08 08:01 | 52.82547 | 9.66976 | 37195 ft | 467 kts | 2° |
| 2026-05-08 08:02 | 52.89025 | 9.67894 | 37206 ft | 467 kts | 3° |
| 2026-05-08 08:02 | 52.95505 | 9.68811 | 37200 ft | 467 kts | 3° |
| 2026-05-08 08:03 | 53.01983 | 9.69716 | 37201 ft | 467 kts | 3° |
| 2026-05-08 08:03 | 53.08463 | 9.70632 | 37204 ft | 467 kts | 3° |
| 2026-05-08 08:04 | 53.14939 | 9.71555 | 37203 ft | 467 kts | 3° |
| 2026-05-08 08:04 | 53.21428 | 9.72486 | 37204 ft | 467 kts | 3° |
| 2026-05-08 08:05 | 53.27904 | 9.73412 | 37203 ft | 467 kts | 3° |
| 2026-05-08 08:05 | 53.34379 | 9.74338 | 37207 ft | 467 kts | 3° |
| 2026-05-08 08:06 | 53.40853 | 9.75268 | 37210 ft | 467 kts | 3° |
| 2026-05-08 08:06 | 53.47335 | 9.76209 | 37226 ft | 467 kts | 3° |
| 2026-05-08 08:07 | 53.53815 | 9.77152 | 37227 ft | 467 kts | 3° |
| 2026-05-08 08:07 | 53.60291 | 9.78096 | 37234 ft | 467 kts | 3° |
| 2026-05-08 08:08 | 53.66726 | 9.79043 | 37228 ft | 467 kts | 3° |
| 2026-05-08 08:08 | 53.73209 | 9.79987 | 37223 ft | 467 kts | 3° |
| 2026-05-08 08:09 | 53.79685 | 9.80933 | 37220 ft | 467 kts | 3° |
| 2026-05-08 08:09 | 53.86158 | 9.81887 | 37225 ft | 467 kts | 4° |
| 2026-05-08 08:10 | 53.92634 | 9.82841 | 37217 ft | 467 kts | 4° |
| 2026-05-08 08:10 | 53.99111 | 9.83796 | 37215 ft | 467 kts | 4° |
| 2026-05-08 08:11 | 54.05590 | 9.84756 | 37218 ft | 467 kts | 4° |
| 2026-05-08 08:11 | 54.12070 | 9.85731 | 37227 ft | 468 kts | 4° |
| 2026-05-08 08:12 | 54.18560 | 9.86696 | 37221 ft | 468 kts | 4° |
| 2026-05-08 08:12 | 54.25049 | 9.87664 | 37238 ft | 468 kts | 4° |
| 2026-05-08 08:13 | 54.31547 | 9.88640 | 37243 ft | 469 kts | 4° |
| 2026-05-08 08:13 | 54.37997 | 9.89619 | 37253 ft | 469 kts | 4° |
| 2026-05-08 08:14 | 54.44544 | 9.90619 | 37252 ft | 469 kts | 4° |
| 2026-05-08 08:14 | 54.51046 | 9.91603 | 37252 ft | 469 kts | 4° |
| 2026-05-08 08:15 | 54.57552 | 9.92578 | 37252 ft | 469 kts | 4° |
| 2026-05-08 08:15 | 54.64060 | 9.93567 | 37258 ft | 470 kts | 4° |
| 2026-05-08 08:16 | 54.70528 | 9.94568 | 37254 ft | 470 kts | 4° |
| 2026-05-08 08:16 | 54.77085 | 9.95586 | 37259 ft | 470 kts | 4° |
| 2026-05-08 08:17 | 54.83542 | 9.97254 | 37256 ft | 470 kts | 13° |
| 2026-05-08 08:17 | 54.89902 | 9.99895 | 37268 ft | 470 kts | 13° |
| 2026-05-08 08:18 | 54.96276 | 10.02521 | 37260 ft | 470 kts | 13° |
| 2026-05-08 08:18 | 55.02651 | 10.05150 | 37259 ft | 471 kts | 13° |
| 2026-05-08 08:19 | 55.09017 | 10.07787 | 37260 ft | 471 kts | 13° |
| 2026-05-08 08:19 | 55.15384 | 10.10443 | 37254 ft | 470 kts | 13° |
| 2026-05-08 08:20 | 55.21712 | 10.13099 | 37255 ft | 471 kts | 13° |
| 2026-05-08 08:20 | 55.28077 | 10.15769 | 37264 ft | 471 kts | 13° |
| 2026-05-08 08:21 | 55.34450 | 10.18453 | 37260 ft | 471 kts | 13° |
| 2026-05-08 08:21 | 55.40823 | 10.21143 | 37264 ft | 471 kts | 13° |
| 2026-05-08 08:22 | 55.47192 | 10.23836 | 37272 ft | 471 kts | 13° |
| 2026-05-08 08:22 | 55.53567 | 10.26536 | 37272 ft | 471 kts | 13° |
| 2026-05-08 08:23 | 55.59935 | 10.29255 | 37274 ft | 471 kts | 14° |
| 2026-05-08 08:23 | 55.66299 | 10.31995 | 37273 ft | 471 kts | 14° |
| 2026-05-08 08:24 | 55.72663 | 10.34739 | 37274 ft | 470 kts | 14° |
| 2026-05-08 08:24 | 55.79027 | 10.37478 | 37276 ft | 470 kts | 13° |
| 2026-05-08 08:25 | 55.84961 | 10.40030 | 37268 ft | 470 kts | 13° |
| 2026-05-08 08:25 | 55.91310 | 10.42793 | 37273 ft | 469 kts | 14° |
| 2026-05-08 08:26 | 55.97616 | 10.45542 | 37267 ft | 469 kts | 14° |
| 2026-05-08 08:26 | 56.03966 | 10.48298 | 37264 ft | 469 kts | 14° |
| 2026-05-08 08:27 | 56.10311 | 10.51077 | 37265 ft | 470 kts | 14° |
| 2026-05-08 08:27 | 56.16659 | 10.53875 | 37264 ft | 470 kts | 14° |
| 2026-05-08 08:28 | 56.23006 | 10.56683 | 37264 ft | 470 kts | 14° |
| 2026-05-08 08:28 | 56.29352 | 10.59485 | 37277 ft | 470 kts | 14° |
| 2026-05-08 08:29 | 56.35704 | 10.62304 | 37276 ft | 470 kts | 14° |
| 2026-05-08 08:29 | 56.42056 | 10.65138 | 37277 ft | 470 kts | 14° |
| 2026-05-08 08:30 | 56.48407 | 10.67976 | 37283 ft | 470 kts | 14° |
| 2026-05-08 08:30 | 56.57929 | 10.71947 | 37281 ft | 470 kts | 7° |
| 2026-05-08 08:31 | 56.64471 | 10.73360 | 37276 ft | 471 kts | 7° |
| 2026-05-08 08:31 | 56.70929 | 10.74731 | 37285 ft | 471 kts | 7° |
| 2026-05-08 08:32 | 56.77440 | 10.76119 | 37282 ft | 471 kts | 7° |
| 2026-05-08 08:32 | 56.83941 | 10.77522 | 37280 ft | 471 kts | 7° |
| 2026-05-08 08:33 | 56.90450 | 10.78934 | 37281 ft | 471 kts | 7° |
| 2026-05-08 08:33 | 56.96947 | 10.80346 | 37283 ft | 471 kts | 7° |
| 2026-05-08 08:34 | 57.03455 | 10.81750 | 37284 ft | 471 kts | 7° |
| 2026-05-08 08:34 | 57.09972 | 10.83159 | 37286 ft | 471 kts | 7° |
| 2026-05-08 08:35 | 57.15384 | 10.84347 | 37286 ft | 471 kts | 7° |
| 2026-05-08 08:35 | 57.21897 | 10.85791 | 37293 ft | 472 kts | 7° |
| 2026-05-08 08:36 | 57.28411 | 10.87237 | 37289 ft | 472 kts | 7° |
| 2026-05-08 08:36 | 57.35990 | 10.88929 | 37286 ft | 472 kts | 7° |
| 2026-05-08 08:37 | 57.41455 | 10.90138 | 37289 ft | 472 kts | 7° |
| 2026-05-08 08:37 | 57.47976 | 10.91575 | 37291 ft | 472 kts | 7° |
| 2026-05-08 08:38 | 57.54496 | 10.93030 | 37287 ft | 472 kts | 7° |
| 2026-05-08 08:38 | 57.61015 | 10.94496 | 37289 ft | 472 kts | 7° |
| 2026-05-08 08:39 | 57.67538 | 10.95967 | 36850 ft | 470 kts | 7° |
| 2026-05-08 08:39 | 57.70784 | 10.96701 | 36110 ft | 471 kts | 7° |
| 2026-05-08 08:39 | 57.73992 | 10.97428 | 35563 ft | 471 kts | 7° |
| 2026-05-08 08:40 | 57.77247 | 10.98170 | 34998 ft | 472 kts | 7° |
| 2026-05-08 08:40 | 57.80513 | 10.98916 | 34441 ft | 472 kts | 7° |
| 2026-05-08 08:40 | 57.83777 | 10.99664 | 33841 ft | 474 kts | 7° |
| 2026-05-08 08:40 | 57.87058 | 11.00418 | 33212 ft | 475 kts | 7° |
| 2026-05-08 08:41 | 57.90342 | 11.01170 | 32599 ft | 476 kts | 7° |
| 2026-05-08 08:41 | 57.93630 | 11.01924 | 31994 ft | 476 kts | 7° |
| 2026-05-08 08:41 | 57.96916 | 11.02676 | 31403 ft | 476 kts | 7° |
| 2026-05-08 08:41 | 58.00205 | 11.03431 | 30825 ft | 476 kts | 7° |
| 2026-05-08 08:42 | 58.03503 | 11.04185 | 30241 ft | 477 kts | 7° |
| 2026-05-08 08:42 | 58.06798 | 11.04939 | 29581 ft | 478 kts | 7° |
| 2026-05-08 08:42 | 58.10101 | 11.05696 | 28931 ft | 479 kts | 7° |
| 2026-05-08 08:42 | 58.13411 | 11.06457 | 28284 ft | 481 kts | 7° |
| 2026-05-08 08:43 | 58.16739 | 11.07231 | 27675 ft | 482 kts | 7° |
| 2026-05-08 08:43 | 58.20077 | 11.08013 | 27064 ft | 484 kts | 7° |
| 2026-05-08 08:43 | 58.23430 | 11.08797 | 26471 ft | 486 kts | 7° |
| 2026-05-08 08:43 | 58.26787 | 11.09577 | 25892 ft | 488 kts | 7° |
| 2026-05-08 08:44 | 58.30165 | 11.10357 | 25429 ft | 489 kts | 7° |
| 2026-05-08 08:44 | 58.33543 | 11.11141 | 25244 ft | 490 kts | 7° |
| 2026-05-08 08:44 | 58.36933 | 11.11931 | 25288 ft | 491 kts | 7° |
| 2026-05-08 08:44 | 58.40328 | 11.12730 | 25285 ft | 492 kts | 7° |
| 2026-05-08 08:45 | 58.43719 | 11.13535 | 25285 ft | 492 kts | 7° |
| 2026-05-08 08:45 | 58.47117 | 11.14339 | 25285 ft | 492 kts | 7° |
| 2026-05-08 08:45 | 58.50513 | 11.15142 | 25285 ft | 492 kts | 7° |
| 2026-05-08 08:45 | 58.53909 | 11.15943 | 25285 ft | 492 kts | 7° |
| 2026-05-08 08:46 | 58.57305 | 11.16749 | 25281 ft | 492 kts | 7° |
| 2026-05-08 08:46 | 58.60703 | 11.17568 | 25283 ft | 492 kts | 7° |
| 2026-05-08 08:46 | 58.64094 | 11.18388 | 25282 ft | 492 kts | 7° |
| 2026-05-08 08:46 | 58.67490 | 11.19199 | 25283 ft | 492 kts | 7° |
| 2026-05-08 08:47 | 58.70885 | 11.20005 | 25282 ft | 492 kts | 7° |
| 2026-05-08 08:47 | 58.74282 | 11.20814 | 25263 ft | 491 kts | 7° |
| 2026-05-08 08:47 | 58.77654 | 11.21621 | 24528 ft | 487 kts | 7° |
| 2026-05-08 08:47 | 58.81001 | 11.22414 | 23591 ft | 483 kts | 6° |
| 2026-05-08 08:48 | 58.84319 | 11.23157 | 22647 ft | 477 kts | 6° |
| 2026-05-08 08:48 | 58.87591 | 11.23906 | 21791 ft | 470 kts | 6° |
| 2026-05-08 08:48 | 58.90819 | 11.24645 | 21007 ft | 464 kts | 6° |
| 2026-05-08 08:48 | 58.94002 | 11.25365 | 20241 ft | 458 kts | 6° |
| 2026-05-08 08:49 | 58.97157 | 11.26016 | 19512 ft | 452 kts | 5° |
| 2026-05-08 08:49 | 59.00273 | 11.26464 | 18802 ft | 447 kts | 3° |
| 2026-05-08 08:49 | 59.03365 | 11.26760 | 18040 ft | 442 kts | 2° |
| 2026-05-08 08:49 | 59.06421 | 11.26972 | 17272 ft | 437 kts | 1° |
| 2026-05-08 08:50 | 59.09406 | 11.27159 | 16525 ft | 433 kts | 1° |
| 2026-05-08 08:50 | 59.12398 | 11.27368 | 15808 ft | 428 kts | 1° |
| 2026-05-08 08:50 | 59.15361 | 11.27610 | 15099 ft | 424 kts | 2° |
| 2026-05-08 08:50 | 59.18299 | 11.27881 | 14407 ft | 420 kts | 2° |
| 2026-05-08 08:51 | 59.21207 | 11.28170 | 13678 ft | 417 kts | 2° |
| 2026-05-08 08:51 | 59.24084 | 11.28465 | 12921 ft | 413 kts | 2° |
| 2026-05-08 08:51 | 59.26943 | 11.28758 | 12215 ft | 409 kts | 2° |
| 2026-05-08 08:51 | 59.29784 | 11.29040 | 12273 ft | 411 kts | 2° |
| 2026-05-08 08:52 | 59.32640 | 11.29315 | 12272 ft | 405 kts | 2° |
| 2026-05-08 08:52 | 59.35373 | 11.29575 | 12271 ft | 382 kts | 2° |
| 2026-05-08 08:52 | 59.37960 | 11.29825 | 12279 ft | 362 kts | 2° |
| 2026-05-08 08:52 | 59.40416 | 11.30065 | 12279 ft | 348 kts | 2° |
| 2026-05-08 08:53 | 59.42826 | 11.30304 | 12277 ft | 345 kts | 2° |
| 2026-05-08 08:53 | 59.45223 | 11.30541 | 12278 ft | 345 kts | 2° |
| 2026-05-08 08:53 | 59.47619 | 11.30775 | 12275 ft | 345 kts | 2° |
| 2026-05-08 08:53 | 59.50016 | 11.31009 | 12140 ft | 344 kts | 2° |
| 2026-05-08 08:54 | 59.52397 | 11.31242 | 11904 ft | 339 kts | 2° |
| 2026-05-08 08:54 | 59.54723 | 11.31467 | 11682 ft | 330 kts | 2° |
| 2026-05-08 08:54 | 59.56978 | 11.31684 | 11499 ft | 321 kts | 2° |
| 2026-05-08 08:54 | 59.59180 | 11.31901 | 11320 ft | 312 kts | 2° |
| 2026-05-08 08:55 | 59.61328 | 11.32116 | 11144 ft | 307 kts | 2° |
| 2026-05-08 08:55 | 59.63462 | 11.32330 | 10967 ft | 306 kts | 2° |
| 2026-05-08 08:55 | 59.65585 | 11.32541 | 10791 ft | 305 kts | 2° |
| 2026-05-08 08:55 | 59.67674 | 11.32750 | 10620 ft | 305 kts | 2° |
| 2026-05-08 08:56 | 59.69791 | 11.32962 | 10447 ft | 304 kts | 2° |
| 2026-05-08 08:56 | 59.71899 | 11.33172 | 10276 ft | 303 kts | 2° |
| 2026-05-08 08:56 | 59.74009 | 11.33382 | 10095 ft | 303 kts | 2° |
| 2026-05-08 08:56 | 59.76107 | 11.33588 | 9900 ft | 302 kts | 2° |
| 2026-05-08 08:57 | 59.78203 | 11.33792 | 9716 ft | 301 kts | 1° |
| 2026-05-08 08:57 | 59.80288 | 11.33996 | 9519 ft | 299 kts | 1° |
| 2026-05-08 08:57 | 59.82365 | 11.34202 | 9330 ft | 298 kts | 1° |
| 2026-05-08 08:57 | 59.84435 | 11.34405 | 9141 ft | 297 kts | 1° |
| 2026-05-08 08:58 | 59.86495 | 11.34609 | 8954 ft | 296 kts | 1° |
| 2026-05-08 08:58 | 59.88548 | 11.34811 | 8769 ft | 295 kts | 1° |
| 2026-05-08 08:58 | 59.90593 | 11.35014 | 8591 ft | 294 kts | 1° |
| 2026-05-08 08:58 | 59.92629 | 11.35222 | 8398 ft | 292 kts | 1° |
| 2026-05-08 08:59 | 59.94659 | 11.35433 | 8223 ft | 291 kts | 1° |
| 2026-05-08 08:59 | 59.96679 | 11.35640 | 8033 ft | 290 kts | 1° |
| 2026-05-08 08:59 | 59.98691 | 11.35844 | 7861 ft | 290 kts | 1° |
| 2026-05-08 08:59 | 60.00703 | 11.36049 | 7679 ft | 289 kts | 1° |
| 2026-05-08 09:00 | 60.02708 | 11.36253 | 7501 ft | 288 kts | 1° |
| 2026-05-08 09:00 | 60.04706 | 11.36453 | 7316 ft | 287 kts | 1° |
| 2026-05-08 09:00 | 60.06699 | 11.36651 | 7145 ft | 287 kts | 1° |
| 2026-05-08 09:00 | 60.08688 | 11.36851 | 6967 ft | 286 kts | 1° |
| 2026-05-08 09:01 | 60.10667 | 11.37053 | 6794 ft | 284 kts | 1° |
| 2026-05-08 09:01 | 60.12646 | 11.37230 | 6628 ft | 285 kts | 358° |
| 2026-05-08 09:01 | 60.14602 | 11.37315 | 6450 ft | 285 kts | 3° |
| 2026-05-08 09:01 | 60.16576 | 11.37746 | 6258 ft | 286 kts | 5° |
| 2026-05-08 09:02 | 60.18544 | 11.38237 | 6070 ft | 285 kts | 5° |
| 2026-05-08 09:02 | 60.20506 | 11.38736 | 5864 ft | 284 kts | 5° |
| 2026-05-08 09:02 | 60.22461 | 11.39232 | 5653 ft | 283 kts | 5° |
| 2026-05-08 09:02 | 60.24438 | 11.39738 | 5442 ft | 282 kts | 5° |
| 2026-05-08 09:03 | 60.26351 | 11.40229 | 5240 ft | 281 kts | 5° |
| 2026-05-08 09:03 | 60.28289 | 11.40728 | 5014 ft | 281 kts | 5° |
| 2026-05-08 09:03 | 60.30219 | 11.41221 | 4749 ft | 276 kts | 5° |
| 2026-05-08 09:03 | 60.32099 | 11.41689 | 4457 ft | 269 kts | 5° |
| 2026-05-08 09:04 | 60.33943 | 11.42146 | 4174 ft | 265 kts | 5° |
| 2026-05-08 09:04 | 60.35725 | 11.42119 | 4009 ft | 249 kts | 342° |
| 2026-05-08 09:04 | 60.37162 | 11.40469 | 4012 ft | 235 kts | 309° |
| 2026-05-08 09:04 | 60.37985 | 11.37713 | 4012 ft | 228 kts | 288° |
| 2026-05-08 09:05 | 60.38560 | 11.34722 | 4006 ft | 228 kts | 285° |
| 2026-05-08 09:05 | 60.39105 | 11.31713 | 3999 ft | 227 kts | 285° |
| 2026-05-08 09:05 | 60.39476 | 11.28653 | 4002 ft | 221 kts | 264° |
| 2026-05-08 09:05 | 60.39043 | 11.25813 | 4004 ft | 208 kts | 233° |
| 2026-05-08 09:06 | 60.38141 | 11.23587 | 3982 ft | 204 kts | 221° |
| 2026-05-08 09:06 | 60.36947 | 11.22056 | 3718 ft | 204 kts | 200° |
| 2026-05-08 09:06 | 60.35597 | 11.21245 | 3540 ft | 201 kts | 196° |
| 2026-05-08 09:06 | 60.34288 | 11.20484 | 3497 ft | 190 kts | 196° |
| 2026-05-08 09:07 | 60.33049 | 11.19763 | 3385 ft | 181 kts | 196° |
| 2026-05-08 09:07 | 60.31840 | 11.19057 | 3150 ft | 181 kts | 196° |
| 2026-05-08 09:07 | 60.30637 | 11.18356 | 2905 ft | 179 kts | 195° |
| 2026-05-08 09:07 | 60.29474 | 11.17678 | 2669 ft | 172 kts | 195° |
| 2026-05-08 09:08 | 60.28359 | 11.17029 | 2461 ft | 155 kts | 195° |
| 2026-05-08 09:08 | 60.27390 | 11.16466 | 2242 ft | 141 kts | 196° |
| 2026-05-08 09:08 | 60.26476 | 11.15935 | 2048 ft | 134 kts | 196° |
| 2026-05-08 09:08 | 60.25604 | 11.15429 | 1866 ft | 128 kts | 195° |
| 2026-05-08 09:09 | 60.24753 | 11.14934 | 1689 ft | 127 kts | 195° |
| 2026-05-08 09:09 | 60.23911 | 11.14446 | 1499 ft | 126 kts | 194° |
| 2026-05-08 09:09 | 60.23069 | 11.13958 | 1338 ft | 126 kts | 193° |
| 2026-05-08 09:09 | 60.22231 | 11.13471 | 1156 ft | 125 kts | 194° |
| 2026-05-08 09:10 | 60.21385 | 11.12985 | 998 ft | 127 kts | 193° |
| 2026-05-08 09:10 | 60.20535 | 11.12496 | 823 ft | 126 kts | 193° |
| 2026-05-08 09:10 | 60.19702 | 11.12000 | 687 ft | 120 kts | 194° |
| 2026-05-08 09:10 | 60.19049 | 11.11636 | 684 ft | 75 kts | 196° |
| 2026-05-08 09:11 | 60.18631 | 11.11383 | 684 ft | 44 kts | 200° |
| 2026-05-08 09:11 | 60.18495 | 11.11256 | 680 ft | 9 kts | 212° |
| 2026-05-08 09:11 | 60.18441 | 11.11129 | 683 ft | 11 kts | 249° |
| 2026-05-08 09:11 | 60.18437 | 11.11049 | 682 ft | 0 kts | 275° |
| 2026-05-08 09:12 | 60.18442 | 11.11001 | 678 ft | 10 kts | 283° |
| 2026-05-08 09:12 | 60.18461 | 11.10868 | 681 ft | 9 kts | 287° |
| 2026-05-08 09:12 | 60.18499 | 11.10769 | 681 ft | 8 kts | 340° |
| 2026-05-08 09:12 | 60.18547 | 11.10776 | 682 ft | 6 kts | 14° |
| 2026-05-08 09:13 | 60.18587 | 11.10798 | 682 ft | 6 kts | 15° |
| 2026-05-08 09:13 | 60.18635 | 11.10826 | 682 ft | 13 kts | 16° |
| 2026-05-08 09:13 | 60.18738 | 11.10887 | 683 ft | 15 kts | 16° |
| 2026-05-08 09:13 | 60.18834 | 11.10942 | 683 ft | 14 kts | 15° |
| 2026-05-08 09:14 | 60.18924 | 11.10993 | 683 ft | 13 kts | 16° |
| 2026-05-08 09:14 | 60.19019 | 11.11048 | 683 ft | 18 kts | 16° |
| 2026-05-08 09:14 | 60.19122 | 11.11108 | 684 ft | 13 kts | 15° |
| 2026-05-08 09:14 | 60.19243 | 11.11178 | 685 ft | 20 kts | 16° |
| 2026-05-08 09:15 | 60.19362 | 11.11248 | 684 ft | 11 kts | 15° |
| 2026-05-08 09:15 | 60.19417 | 11.11218 | 683 ft | 9 kts | 304° |
| 2026-05-08 09:15 | 60.19437 | 11.11103 | 681 ft | 8 kts | 287° |
| 2026-05-08 09:15 | 60.19453 | 11.11000 | 680 ft | 7 kts | 287° |
| 2026-05-08 09:16 | 60.19467 | 11.10905 | 683 ft | 9 kts | 286° |
| 2026-05-08 09:16 | 60.19490 | 11.10743 | 683 ft | 12 kts | 285° |
| 2026-05-08 09:16 | 60.19511 | 11.10590 | 680 ft | 11 kts | 285° |
| 2026-05-08 09:16 | 60.19530 | 11.10451 | 683 ft | 10 kts | 286° |
| 2026-05-08 09:17 | 60.19539 | 11.10334 | 685 ft | 7 kts | 277° |
| 2026-05-08 09:17 | 60.19549 | 11.10249 | 685 ft | 6 kts | 286° |
| 2026-05-08 09:17 | 60.19559 | 11.10183 | 682 ft | 3 kts | 287° |
| 2026-05-08 09:17 | 60.19564 | 11.10153 | 685 ft | 1 kts | 286° |
| 2026-05-08 09:18 | 60.19565 | 11.10147 | 684 ft | 0 kts | 286° |